sensor_id;sensor_type;location;lat;lon;timestamp;temperature;humidity
296;DHT22;132;48.770;9.200;2022-07-11T00:00:46;15.60;1.00
296;DHT22;132;48.770;9.200;2022-07-11T00:03:32;15.60;1.00
296;DHT22;132;48.770;9.200;2022-07-11T00:06:19;15.60;1.00
296;DHT22;132;48.770;9.200;2022-07-11T00:09:05;15.70;1.00
296;DHT22;132;48.770;9.200;2022-07-11T00:11:52;15.70;1.00
296;DHT22;132;48.770;9.200;2022-07-11T00:14:40;15.70;1.00
296;DHT22;132;48.770;9.200;2022-07-11T00:17:27;15.70;1.00
296;DHT22;132;48.770;9.200;2022-07-11T00:20:13;15.80;1.00
296;DHT22;132;48.770;9.200;2022-07-11T00:23:00;15.80;1.00
296;DHT22;132;48.770;9.200;2022-07-11T00:25:47;15.80;1.00
296;DHT22;132;48.770;9.200;2022-07-11T00:28:34;15.70;1.00
296;DHT22;132;48.770;9.200;2022-07-11T00:31:20;15.80;1.00
296;DHT22;132;48.770;9.200;2022-07-11T00:34:07;15.70;1.00
296;DHT22;132;48.770;9.200;2022-07-11T00:36:53;15.70;1.00
296;DHT22;132;48.770;9.200;2022-07-11T00:39:40;15.70;1.00
296;DHT22;132;48.770;9.200;2022-07-11T00:42:27;15.60;1.00
296;DHT22;132;48.770;9.200;2022-07-11T00:45:13;15.60;1.00
296;DHT22;132;48.770;9.200;2022-07-11T00:48:00;15.60;1.00
296;DHT22;132;48.770;9.200;2022-07-11T00:50:47;15.40;1.00
296;DHT22;132;48.770;9.200;2022-07-11T00:53:34;15.50;1.00
296;DHT22;132;48.770;9.200;2022-07-11T00:56:24;15.50;1.00
296;DHT22;132;48.770;9.200;2022-07-11T00:59:12;15.60;1.00
296;DHT22;132;48.770;9.200;2022-07-11T01:01:59;15.50;1.00
296;DHT22;132;48.770;9.200;2022-07-11T01:04:46;15.50;1.00
296;DHT22;132;48.770;9.200;2022-07-11T01:07:33;15.40;1.00
296;DHT22;132;48.770;9.200;2022-07-11T01:10:19;15.40;1.00
296;DHT22;132;48.770;9.200;2022-07-11T01:13:06;15.20;1.00
296;DHT22;132;48.770;9.200;2022-07-11T01:16:07;15.30;1.00
296;DHT22;132;48.770;9.200;2022-07-11T01:18:54;15.50;1.00
296;DHT22;132;48.770;9.200;2022-07-11T01:21:43;15.40;1.00
296;DHT22;132;48.770;9.200;2022-07-11T01:24:32;15.40;1.00
296;DHT22;132;48.770;9.200;2022-07-11T01:27:19;15.40;1.00
296;DHT22;132;48.770;9.200;2022-07-11T01:30:06;15.40;1.00
296;DHT22;132;48.770;9.200;2022-07-11T01:32:54;15.40;1.00
296;DHT22;132;48.770;9.200;2022-07-11T01:35:41;15.40;1.00
296;DHT22;132;48.770;9.200;2022-07-11T01:38:28;15.30;1.00
296;DHT22;132;48.770;9.200;2022-07-11T01:41:14;15.40;1.00
296;DHT22;132;48.770;9.200;2022-07-11T01:44:01;15.30;1.00
296;DHT22;132;48.770;9.200;2022-07-11T01:46:48;15.40;1.00
296;DHT22;132;48.770;9.200;2022-07-11T01:49:34;15.40;1.00
296;DHT22;132;48.770;9.200;2022-07-11T01:52:21;15.40;1.00
296;DHT22;132;48.770;9.200;2022-07-11T01:55:08;15.40;1.00
296;DHT22;132;48.770;9.200;2022-07-11T01:57:57;15.40;1.00
296;DHT22;132;48.770;9.200;2022-07-11T02:00:47;15.40;1.00
296;DHT22;132;48.770;9.200;2022-07-11T02:03:33;15.50;1.00
296;DHT22;132;48.770;9.200;2022-07-11T02:06:20;15.40;1.00
296;DHT22;132;48.770;9.200;2022-07-11T02:09:07;15.50;1.00
296;DHT22;132;48.770;9.200;2022-07-11T02:11:53;15.50;1.00
296;DHT22;132;48.770;9.200;2022-07-11T02:14:40;15.50;1.00
296;DHT22;132;48.770;9.200;2022-07-11T02:17:27;15.50;1.00
296;DHT22;132;48.770;9.200;2022-07-11T02:20:13;15.70;1.00
296;DHT22;132;48.770;9.200;2022-07-11T02:23:00;15.60;1.00
296;DHT22;132;48.770;9.200;2022-07-11T02:25:47;15.60;1.00
296;DHT22;132;48.770;9.200;2022-07-11T02:28:34;15.60;1.00
296;DHT22;132;48.770;9.200;2022-07-11T02:31:23;15.60;1.00
296;DHT22;132;48.770;9.200;2022-07-11T02:34:09;15.60;1.00
296;DHT22;132;48.770;9.200;2022-07-11T02:36:56;15.70;1.00
296;DHT22;132;48.770;9.200;2022-07-11T02:39:43;15.60;1.00
296;DHT22;132;48.770;9.200;2022-07-11T02:42:30;15.70;1.00
296;DHT22;132;48.770;9.200;2022-07-11T02:45:17;15.70;1.00
296;DHT22;132;48.770;9.200;2022-07-11T02:48:04;15.70;1.00
296;DHT22;132;48.770;9.200;2022-07-11T02:50:51;15.70;1.00
296;DHT22;132;48.770;9.200;2022-07-11T02:53:38;15.80;1.00
296;DHT22;132;48.770;9.200;2022-07-11T02:56:24;15.80;1.00
296;DHT22;132;48.770;9.200;2022-07-11T02:59:11;15.80;1.00
296;DHT22;132;48.770;9.200;2022-07-11T03:01:58;15.80;1.00
296;DHT22;132;48.770;9.200;2022-07-11T03:04:44;15.80;1.00
296;DHT22;132;48.770;9.200;2022-07-11T03:07:31;15.80;1.00
296;DHT22;132;48.770;9.200;2022-07-11T03:10:17;15.80;1.00
296;DHT22;132;48.770;9.200;2022-07-11T03:13:04;15.80;1.00
296;DHT22;132;48.770;9.200;2022-07-11T03:15:51;15.90;1.00
296;DHT22;132;48.770;9.200;2022-07-11T03:18:37;15.80;1.00
296;DHT22;132;48.770;9.200;2022-07-11T03:21:24;15.80;1.00
296;DHT22;132;48.770;9.200;2022-07-11T03:24:11;15.90;1.00
296;DHT22;132;48.770;9.200;2022-07-11T03:26:58;15.80;1.00
296;DHT22;132;48.770;9.200;2022-07-11T03:29:45;15.80;1.00
296;DHT22;132;48.770;9.200;2022-07-11T03:32:31;15.80;1.00
296;DHT22;132;48.770;9.200;2022-07-11T03:35:18;15.90;1.00
296;DHT22;132;48.770;9.200;2022-07-11T03:38:24;15.90;1.00
296;DHT22;132;48.770;9.200;2022-07-11T03:41:10;15.90;1.00
296;DHT22;132;48.770;9.200;2022-07-11T03:43:57;15.90;1.00
296;DHT22;132;48.770;9.200;2022-07-11T03:46:43;15.90;1.00
296;DHT22;132;48.770;9.200;2022-07-11T03:49:30;15.90;1.00
296;DHT22;132;48.770;9.200;2022-07-11T03:52:17;15.90;1.00
296;DHT22;132;48.770;9.200;2022-07-11T03:55:04;16.00;1.00
296;DHT22;132;48.770;9.200;2022-07-11T03:57:50;15.90;1.00
296;DHT22;132;48.770;9.200;2022-07-11T04:00:37;15.90;1.00
296;DHT22;132;48.770;9.200;2022-07-11T04:03:24;16.00;1.00
296;DHT22;132;48.770;9.200;2022-07-11T04:06:13;16.00;1.00
296;DHT22;132;48.770;9.200;2022-07-11T04:09:00;16.00;1.00
296;DHT22;132;48.770;9.200;2022-07-11T04:11:46;16.00;1.00
296;DHT22;132;48.770;9.200;2022-07-11T04:14:33;16.10;1.00
296;DHT22;132;48.770;9.200;2022-07-11T04:17:20;15.80;1.00
296;DHT22;132;48.770;9.200;2022-07-11T04:20:07;16.10;1.00
296;DHT22;132;48.770;9.200;2022-07-11T04:22:53;16.10;1.00
296;DHT22;132;48.770;9.200;2022-07-11T04:25:40;16.20;1.00
296;DHT22;132;48.770;9.200;2022-07-11T04:28:27;16.20;1.00
296;DHT22;132;48.770;9.200;2022-07-11T04:31:13;16.20;1.00
296;DHT22;132;48.770;9.200;2022-07-11T04:34:00;16.40;1.00
296;DHT22;132;48.770;9.200;2022-07-11T04:36:47;16.60;1.00
296;DHT22;132;48.770;9.200;2022-07-11T04:39:33;16.40;1.00
296;DHT22;132;48.770;9.200;2022-07-11T04:42:20;16.40;1.00
296;DHT22;132;48.770;9.200;2022-07-11T04:45:07;16.40;1.00
296;DHT22;132;48.770;9.200;2022-07-11T04:47:53;16.50;1.00
296;DHT22;132;48.770;9.200;2022-07-11T04:50:43;16.50;1.00
296;DHT22;132;48.770;9.200;2022-07-11T04:53:30;16.50;1.00
296;DHT22;132;48.770;9.200;2022-07-11T04:56:17;16.60;1.00
296;DHT22;132;48.770;9.200;2022-07-11T04:59:04;16.70;1.00
296;DHT22;132;48.770;9.200;2022-07-11T05:01:51;16.70;1.00
296;DHT22;132;48.770;9.200;2022-07-11T05:04:37;17.10;1.00
296;DHT22;132;48.770;9.200;2022-07-11T05:07:24;16.90;1.00
296;DHT22;132;48.770;9.200;2022-07-11T05:10:11;16.80;1.00
296;DHT22;132;48.770;9.200;2022-07-11T05:12:57;16.90;1.00
296;DHT22;132;48.770;9.200;2022-07-11T05:15:44;16.90;1.00
296;DHT22;132;48.770;9.200;2022-07-11T05:18:30;17.00;1.00
296;DHT22;132;48.770;9.200;2022-07-11T05:21:17;17.30;1.00
296;DHT22;132;48.770;9.200;2022-07-11T05:24:08;17.10;1.00
296;DHT22;132;48.770;9.200;2022-07-11T05:26:55;17.20;1.00
296;DHT22;132;48.770;9.200;2022-07-11T05:29:42;17.20;1.00
296;DHT22;132;48.770;9.200;2022-07-11T05:32:28;17.30;1.00
296;DHT22;132;48.770;9.200;2022-07-11T05:35:15;17.30;1.00
296;DHT22;132;48.770;9.200;2022-07-11T05:38:02;17.40;1.00
296;DHT22;132;48.770;9.200;2022-07-11T05:40:48;17.50;1.00
296;DHT22;132;48.770;9.200;2022-07-11T05:43:35;17.50;1.00
296;DHT22;132;48.770;9.200;2022-07-11T05:46:21;17.60;1.00
296;DHT22;132;48.770;9.200;2022-07-11T05:49:08;17.70;1.00
296;DHT22;132;48.770;9.200;2022-07-11T05:51:55;17.80;1.00
296;DHT22;132;48.770;9.200;2022-07-11T05:54:41;17.70;1.00
296;DHT22;132;48.770;9.200;2022-07-11T05:57:28;17.90;1.00
296;DHT22;132;48.770;9.200;2022-07-11T06:00:15;17.90;1.00
296;DHT22;132;48.770;9.200;2022-07-11T06:03:02;18.00;1.00
296;DHT22;132;48.770;9.200;2022-07-11T06:05:48;18.00;1.00
296;DHT22;132;48.770;9.200;2022-07-11T06:08:36;18.10;1.00
296;DHT22;132;48.770;9.200;2022-07-11T06:11:29;18.10;1.00
296;DHT22;132;48.770;9.200;2022-07-11T06:14:16;18.10;1.00
296;DHT22;132;48.770;9.200;2022-07-11T06:17:03;18.10;1.00
296;DHT22;132;48.770;9.200;2022-07-11T06:19:50;18.20;1.00
296;DHT22;132;48.770;9.200;2022-07-11T06:22:36;18.30;1.00
296;DHT22;132;48.770;9.200;2022-07-11T06:25:23;18.20;1.00
296;DHT22;132;48.770;9.200;2022-07-11T06:28:09;18.20;1.00
296;DHT22;132;48.770;9.200;2022-07-11T06:30:56;18.20;1.00
296;DHT22;132;48.770;9.200;2022-07-11T06:33:43;18.30;1.00
296;DHT22;132;48.770;9.200;2022-07-11T06:36:30;18.40;1.00
296;DHT22;132;48.770;9.200;2022-07-11T06:39:16;18.50;1.00
296;DHT22;132;48.770;9.200;2022-07-11T06:42:03;18.60;1.00
296;DHT22;132;48.770;9.200;2022-07-11T06:44:50;18.70;1.00
296;DHT22;132;48.770;9.200;2022-07-11T06:47:37;18.70;1.00
296;DHT22;132;48.770;9.200;2022-07-11T06:50:24;17.80;1.00
296;DHT22;132;48.770;9.200;2022-07-11T06:53:10;18.80;1.00
296;DHT22;132;48.770;9.200;2022-07-11T06:55:57;18.80;1.00
296;DHT22;132;48.770;9.200;2022-07-11T06:58:44;18.90;1.00
296;DHT22;132;48.770;9.200;2022-07-11T07:01:30;19.10;1.00
296;DHT22;132;48.770;9.200;2022-07-11T07:04:17;19.20;1.00
296;DHT22;132;48.770;9.200;2022-07-11T07:07:03;19.30;1.00
296;DHT22;132;48.770;9.200;2022-07-11T07:09:50;19.30;1.00
296;DHT22;132;48.770;9.200;2022-07-11T07:12:38;19.30;1.00
296;DHT22;132;48.770;9.200;2022-07-11T07:15:25;19.30;1.00
296;DHT22;132;48.770;9.200;2022-07-11T07:18:12;19.30;1.00
296;DHT22;132;48.770;9.200;2022-07-11T07:20:59;19.40;1.00
296;DHT22;132;48.770;9.200;2022-07-11T07:23:45;19.50;1.00
296;DHT22;132;48.770;9.200;2022-07-11T07:26:32;19.60;1.00
296;DHT22;132;48.770;9.200;2022-07-11T07:29:19;19.80;1.00
296;DHT22;132;48.770;9.200;2022-07-11T07:32:06;19.80;1.00
296;DHT22;132;48.770;9.200;2022-07-11T07:34:53;19.90;1.00
296;DHT22;132;48.770;9.200;2022-07-11T07:37:40;20.20;1.00
296;DHT22;132;48.770;9.200;2022-07-11T07:40:27;20.00;1.00
296;DHT22;132;48.770;9.200;2022-07-11T07:43:14;20.10;1.00
296;DHT22;132;48.770;9.200;2022-07-11T07:46:01;20.20;1.00
296;DHT22;132;48.770;9.200;2022-07-11T07:48:47;20.30;1.00
296;DHT22;132;48.770;9.200;2022-07-11T07:51:34;20.50;1.00
296;DHT22;132;48.770;9.200;2022-07-11T07:54:21;20.60;1.00
296;DHT22;132;48.770;9.200;2022-07-11T07:57:07;20.80;1.00
296;DHT22;132;48.770;9.200;2022-07-11T07:59:54;21.00;1.00
296;DHT22;132;48.770;9.200;2022-07-11T08:03:07;21.20;1.00
296;DHT22;132;48.770;9.200;2022-07-11T08:05:55;21.30;1.00
296;DHT22;132;48.770;9.200;2022-07-11T08:08:42;21.10;1.00
296;DHT22;132;48.770;9.200;2022-07-11T08:11:28;21.00;1.00
296;DHT22;132;48.770;9.200;2022-07-11T08:14:16;20.90;1.00
296;DHT22;132;48.770;9.200;2022-07-11T08:17:03;20.80;1.00
296;DHT22;132;48.770;9.200;2022-07-11T08:19:50;20.70;1.00
296;DHT22;132;48.770;9.200;2022-07-11T08:22:37;20.90;1.00
296;DHT22;132;48.770;9.200;2022-07-11T08:25:23;20.70;1.00
296;DHT22;132;48.770;9.200;2022-07-11T08:28:10;20.50;1.00
296;DHT22;132;48.770;9.200;2022-07-11T08:30:57;20.80;1.00
296;DHT22;132;48.770;9.200;2022-07-11T08:33:43;20.80;1.00
296;DHT22;132;48.770;9.200;2022-07-11T08:36:30;20.70;1.00
296;DHT22;132;48.770;9.200;2022-07-11T08:39:21;20.80;1.00
296;DHT22;132;48.770;9.200;2022-07-11T08:42:08;20.80;1.00
296;DHT22;132;48.770;9.200;2022-07-11T08:44:55;20.90;1.00
296;DHT22;132;48.770;9.200;2022-07-11T08:47:43;20.80;1.00
296;DHT22;132;48.770;9.200;2022-07-11T08:50:30;20.90;1.00
296;DHT22;132;48.770;9.200;2022-07-11T08:53:17;20.90;1.00
296;DHT22;132;48.770;9.200;2022-07-11T08:56:04;20.90;1.00
296;DHT22;132;48.770;9.200;2022-07-11T08:59:00;21.00;1.00
296;DHT22;132;48.770;9.200;2022-07-11T09:01:49;21.20;1.00
296;DHT22;132;48.770;9.200;2022-07-11T09:04:39;21.40;1.00
296;DHT22;132;48.770;9.200;2022-07-11T09:07:28;21.60;1.00
296;DHT22;132;48.770;9.200;2022-07-11T09:10:16;21.80;1.00
296;DHT22;132;48.770;9.200;2022-07-11T09:13:04;22.00;1.00
296;DHT22;132;48.770;9.200;2022-07-11T09:15:50;22.20;1.00
296;DHT22;132;48.770;9.200;2022-07-11T09:18:39;22.50;1.00
296;DHT22;132;48.770;9.200;2022-07-11T09:21:26;22.60;1.00
296;DHT22;132;48.770;9.200;2022-07-11T09:24:35;22.80;1.00
296;DHT22;132;48.770;9.200;2022-07-11T09:27:42;22.90;1.00
296;DHT22;132;48.770;9.200;2022-07-11T09:30:33;22.80;1.00
296;DHT22;132;48.770;9.200;2022-07-11T09:33:25;22.70;1.00
296;DHT22;132;48.770;9.200;2022-07-11T09:36:12;22.80;1.00
296;DHT22;132;48.770;9.200;2022-07-11T09:39:01;23.10;1.00
296;DHT22;132;48.770;9.200;2022-07-11T09:41:50;23.20;1.00
296;DHT22;132;48.770;9.200;2022-07-11T09:44:38;22.90;1.00
296;DHT22;132;48.770;9.200;2022-07-11T09:47:25;22.90;1.00
296;DHT22;132;48.770;9.200;2022-07-11T09:50:11;23.00;1.00
296;DHT22;132;48.770;9.200;2022-07-11T09:53:13;23.10;1.00
296;DHT22;132;48.770;9.200;2022-07-11T09:56:06;23.20;1.00
296;DHT22;132;48.770;9.200;2022-07-11T09:59:00;23.20;1.00
296;DHT22;132;48.770;9.200;2022-07-11T10:01:47;23.30;1.00
296;DHT22;132;48.770;9.200;2022-07-11T10:04:33;23.30;1.00
296;DHT22;132;48.770;9.200;2022-07-11T10:07:20;23.30;1.00
296;DHT22;132;48.770;9.200;2022-07-11T10:10:07;23.30;1.00
296;DHT22;132;48.770;9.200;2022-07-11T10:12:55;23.20;1.00
296;DHT22;132;48.770;9.200;2022-07-11T10:15:42;23.20;1.00
296;DHT22;132;48.770;9.200;2022-07-11T10:21:38;23.30;1.00
296;DHT22;132;48.770;9.200;2022-07-11T10:24:44;23.70;1.00
296;DHT22;132;48.770;9.200;2022-07-11T10:27:39;23.30;1.00
296;DHT22;132;48.770;9.200;2022-07-11T10:30:46;23.20;1.00
296;DHT22;132;48.770;9.200;2022-07-11T10:33:33;23.30;1.00
296;DHT22;132;48.770;9.200;2022-07-11T10:36:30;23.40;1.00
296;DHT22;132;48.770;9.200;2022-07-11T10:39:22;23.70;1.00
296;DHT22;132;48.770;9.200;2022-07-11T10:42:19;23.70;1.00
296;DHT22;132;48.770;9.200;2022-07-11T10:45:08;23.90;1.00
296;DHT22;132;48.770;9.200;2022-07-11T10:48:09;23.60;1.00
296;DHT22;132;48.770;9.200;2022-07-11T10:53:50;23.60;1.00
296;DHT22;132;48.770;9.200;2022-07-11T10:56:44;23.70;1.00
296;DHT22;132;48.770;9.200;2022-07-11T10:59:31;24.10;1.00
296;DHT22;132;48.770;9.200;2022-07-11T11:02:18;24.30;1.00
296;DHT22;132;48.770;9.200;2022-07-11T11:05:06;24.50;1.00
296;DHT22;132;48.770;9.200;2022-07-11T11:07:53;24.50;1.00
296;DHT22;132;48.770;9.200;2022-07-11T11:13:30;24.30;1.00
296;DHT22;132;48.770;9.200;2022-07-11T11:16:21;24.20;1.00
296;DHT22;132;48.770;9.200;2022-07-11T11:22:34;23.80;1.00
296;DHT22;132;48.770;9.200;2022-07-11T11:25:21;24.40;1.00
296;DHT22;132;48.770;9.200;2022-07-11T11:28:09;24.60;1.00
296;DHT22;132;48.770;9.200;2022-07-11T11:30:57;24.70;1.00
296;DHT22;132;48.770;9.200;2022-07-11T11:33:44;24.80;1.00
296;DHT22;132;48.770;9.200;2022-07-11T11:36:34;24.70;1.00
296;DHT22;132;48.770;9.200;2022-07-11T11:39:32;24.40;1.00
296;DHT22;132;48.770;9.200;2022-07-11T11:42:19;24.10;1.00
296;DHT22;132;48.770;9.200;2022-07-11T11:45:07;23.70;1.00
296;DHT22;132;48.770;9.200;2022-07-11T11:47:57;23.70;1.00
296;DHT22;132;48.770;9.200;2022-07-11T11:50:44;23.70;1.00
296;DHT22;132;48.770;9.200;2022-07-11T11:53:44;23.70;1.00
296;DHT22;132;48.770;9.200;2022-07-11T11:56:36;23.70;1.00
296;DHT22;132;48.770;9.200;2022-07-11T11:59:29;23.80;1.00
296;DHT22;132;48.770;9.200;2022-07-11T12:02:28;24.10;1.00
296;DHT22;132;48.770;9.200;2022-07-11T12:05:16;24.20;1.00
296;DHT22;132;48.770;9.200;2022-07-11T12:08:03;24.10;1.00
296;DHT22;132;48.770;9.200;2022-07-11T12:10:54;24.20;1.00
296;DHT22;132;48.770;9.200;2022-07-11T12:13:41;24.30;1.00
296;DHT22;132;48.770;9.200;2022-07-11T12:16:28;24.60;1.00
296;DHT22;132;48.770;9.200;2022-07-11T12:19:34;24.50;1.00
296;DHT22;132;48.770;9.200;2022-07-11T12:22:22;24.40;1.00
296;DHT22;132;48.770;9.200;2022-07-11T12:25:09;24.40;1.00
296;DHT22;132;48.770;9.200;2022-07-11T12:27:56;24.50;1.00
296;DHT22;132;48.770;9.200;2022-07-11T12:30:43;23.80;1.00
296;DHT22;132;48.770;9.200;2022-07-11T12:33:30;24.50;1.00
296;DHT22;132;48.770;9.200;2022-07-11T12:36:17;24.30;1.00
296;DHT22;132;48.770;9.200;2022-07-11T12:39:04;24.50;1.00
296;DHT22;132;48.770;9.200;2022-07-11T12:41:52;24.70;1.00
296;DHT22;132;48.770;9.200;2022-07-11T12:44:39;24.90;1.00
296;DHT22;132;48.770;9.200;2022-07-11T12:47:46;25.30;1.00
296;DHT22;132;48.770;9.200;2022-07-11T12:50:34;25.50;1.00
296;DHT22;132;48.770;9.200;2022-07-11T12:53:28;25.60;1.00
296;DHT22;132;48.770;9.200;2022-07-11T12:56:24;25.60;1.00
296;DHT22;132;48.770;9.200;2022-07-11T12:59:21;25.60;1.00
296;DHT22;132;48.770;9.200;2022-07-11T13:02:10;25.70;1.00
296;DHT22;132;48.770;9.200;2022-07-11T13:04:57;25.60;1.00
296;DHT22;132;48.770;9.200;2022-07-11T13:07:44;25.40;1.00
296;DHT22;132;48.770;9.200;2022-07-11T13:10:49;25.10;1.00
296;DHT22;132;48.770;9.200;2022-07-11T13:13:43;25.20;1.00
296;DHT22;132;48.770;9.200;2022-07-11T13:16:30;25.10;1.00
296;DHT22;132;48.770;9.200;2022-07-11T13:19:17;25.30;1.00
296;DHT22;132;48.770;9.200;2022-07-11T13:22:03;25.60;1.00
296;DHT22;132;48.770;9.200;2022-07-11T13:24:50;25.80;1.00
296;DHT22;132;48.770;9.200;2022-07-11T13:27:42;25.90;1.00
296;DHT22;132;48.770;9.200;2022-07-11T13:30:29;25.70;1.00
296;DHT22;132;48.770;9.200;2022-07-11T13:33:18;25.80;1.00
296;DHT22;132;48.770;9.200;2022-07-11T13:36:05;25.40;1.00
296;DHT22;132;48.770;9.200;2022-07-11T13:38:52;25.20;1.00
296;DHT22;132;48.770;9.200;2022-07-11T13:41:38;25.30;1.00
296;DHT22;132;48.770;9.200;2022-07-11T13:44:25;25.30;1.00
296;DHT22;132;48.770;9.200;2022-07-11T13:47:12;25.30;1.00
296;DHT22;132;48.770;9.200;2022-07-11T13:50:00;25.40;1.00
296;DHT22;132;48.770;9.200;2022-07-11T13:52:48;25.30;1.00
296;DHT22;132;48.770;9.200;2022-07-11T13:55:35;25.20;1.00
296;DHT22;132;48.770;9.200;2022-07-11T13:58:22;25.20;1.00
296;DHT22;132;48.770;9.200;2022-07-11T14:01:11;25.20;1.00
296;DHT22;132;48.770;9.200;2022-07-11T14:03:58;25.10;1.00
296;DHT22;132;48.770;9.200;2022-07-11T14:06:44;25.10;1.00
296;DHT22;132;48.770;9.200;2022-07-11T14:09:31;24.80;1.00
296;DHT22;132;48.770;9.200;2022-07-11T14:12:18;24.70;1.00
296;DHT22;132;48.770;9.200;2022-07-11T14:15:05;24.70;1.00
296;DHT22;132;48.770;9.200;2022-07-11T14:17:52;24.60;1.00
296;DHT22;132;48.770;9.200;2022-07-11T14:20:38;24.50;1.00
296;DHT22;132;48.770;9.200;2022-07-11T14:23:25;24.50;1.00
296;DHT22;132;48.770;9.200;2022-07-11T14:26:12;24.50;1.00
296;DHT22;132;48.770;9.200;2022-07-11T14:29:00;24.40;1.00
296;DHT22;132;48.770;9.200;2022-07-11T14:31:47;24.40;1.00
296;DHT22;132;48.770;9.200;2022-07-11T14:34:34;24.40;1.00
296;DHT22;132;48.770;9.200;2022-07-11T14:37:21;24.40;1.00
296;DHT22;132;48.770;9.200;2022-07-11T14:40:08;24.40;1.00
296;DHT22;132;48.770;9.200;2022-07-11T14:42:55;24.40;1.00
296;DHT22;132;48.770;9.200;2022-07-11T14:45:42;24.50;1.00
296;DHT22;132;48.770;9.200;2022-07-11T14:48:28;24.60;1.00
296;DHT22;132;48.770;9.200;2022-07-11T14:51:15;24.80;1.00
296;DHT22;132;48.770;9.200;2022-07-11T14:54:02;24.90;1.00
296;DHT22;132;48.770;9.200;2022-07-11T14:56:49;25.30;1.00
296;DHT22;132;48.770;9.200;2022-07-11T14:59:36;26.50;1.00
296;DHT22;132;48.770;9.200;2022-07-11T15:02:22;27.30;1.00
296;DHT22;132;48.770;9.200;2022-07-11T15:05:28;27.40;1.00
296;DHT22;132;48.770;9.200;2022-07-11T15:08:14;27.50;1.00
296;DHT22;132;48.770;9.200;2022-07-11T15:11:20;27.40;1.00
296;DHT22;132;48.770;9.200;2022-07-11T15:14:11;27.40;1.00
296;DHT22;132;48.770;9.200;2022-07-11T15:16:58;27.90;1.00
296;DHT22;132;48.770;9.200;2022-07-11T15:19:45;27.80;1.00
296;DHT22;132;48.770;9.200;2022-07-11T15:22:32;27.80;1.00
296;DHT22;132;48.770;9.200;2022-07-11T15:25:19;28.10;1.00
296;DHT22;132;48.770;9.200;2022-07-11T15:28:05;28.30;1.00
296;DHT22;132;48.770;9.200;2022-07-11T15:30:52;27.80;1.00
296;DHT22;132;48.770;9.200;2022-07-11T15:33:42;27.70;1.00
296;DHT22;132;48.770;9.200;2022-07-11T15:36:30;27.20;1.00
296;DHT22;132;48.770;9.200;2022-07-11T15:39:16;26.60;1.00
296;DHT22;132;48.770;9.200;2022-07-11T15:42:03;26.20;1.00
296;DHT22;132;48.770;9.200;2022-07-11T15:44:50;26.20;1.00
296;DHT22;132;48.770;9.200;2022-07-11T15:47:37;26.30;1.00
296;DHT22;132;48.770;9.200;2022-07-11T15:50:24;26.90;1.00
296;DHT22;132;48.770;9.200;2022-07-11T15:53:10;28.20;1.00
296;DHT22;132;48.770;9.200;2022-07-11T15:55:57;29.10;1.00
296;DHT22;132;48.770;9.200;2022-07-11T15:58:44;28.60;1.00
296;DHT22;132;48.770;9.200;2022-07-11T16:01:31;27.70;1.00
296;DHT22;132;48.770;9.200;2022-07-11T16:04:18;27.40;1.00
296;DHT22;132;48.770;9.200;2022-07-11T16:07:05;27.50;1.00
296;DHT22;132;48.770;9.200;2022-07-11T16:09:52;27.30;1.00
296;DHT22;132;48.770;9.200;2022-07-11T16:12:38;26.60;1.00
296;DHT22;132;48.770;9.200;2022-07-11T16:15:25;26.20;1.00
296;DHT22;132;48.770;9.200;2022-07-11T16:18:12;26.20;1.00
296;DHT22;132;48.770;9.200;2022-07-11T16:21:00;26.10;1.00
296;DHT22;132;48.770;9.200;2022-07-11T16:23:47;25.80;1.00
296;DHT22;132;48.770;9.200;2022-07-11T16:26:34;25.50;1.00
296;DHT22;132;48.770;9.200;2022-07-11T16:29:21;25.10;1.00
296;DHT22;132;48.770;9.200;2022-07-11T16:32:07;24.90;1.00
296;DHT22;132;48.770;9.200;2022-07-11T16:34:54;24.80;1.00
296;DHT22;132;48.770;9.200;2022-07-11T16:37:41;24.50;1.00
296;DHT22;132;48.770;9.200;2022-07-11T16:40:27;24.30;1.00
296;DHT22;132;48.770;9.200;2022-07-11T16:43:32;24.10;1.00
296;DHT22;132;48.770;9.200;2022-07-11T16:46:19;23.90;1.00
296;DHT22;132;48.770;9.200;2022-07-11T16:49:06;23.80;1.00
296;DHT22;132;48.770;9.200;2022-07-11T16:51:53;23.80;1.00
296;DHT22;132;48.770;9.200;2022-07-11T16:54:40;23.70;1.00
296;DHT22;132;48.770;9.200;2022-07-11T16:57:27;23.50;1.00
296;DHT22;132;48.770;9.200;2022-07-11T17:00:14;23.70;1.00
296;DHT22;132;48.770;9.200;2022-07-11T17:03:04;23.60;1.00
296;DHT22;132;48.770;9.200;2022-07-11T17:05:52;23.60;1.00
296;DHT22;132;48.770;9.200;2022-07-11T17:08:39;23.50;1.00
296;DHT22;132;48.770;9.200;2022-07-11T17:11:34;23.50;1.00
296;DHT22;132;48.770;9.200;2022-07-11T17:14:20;23.40;1.00
296;DHT22;132;48.770;9.200;2022-07-11T17:17:07;23.40;1.00
296;DHT22;132;48.770;9.200;2022-07-11T17:19:53;23.40;1.00
296;DHT22;132;48.770;9.200;2022-07-11T17:22:40;23.40;1.00
296;DHT22;132;48.770;9.200;2022-07-11T17:25:27;23.30;1.00
296;DHT22;132;48.770;9.200;2022-07-11T17:28:15;23.20;1.00
296;DHT22;132;48.770;9.200;2022-07-11T17:31:02;23.20;1.00
296;DHT22;132;48.770;9.200;2022-07-11T17:33:48;23.00;1.00
296;DHT22;132;48.770;9.200;2022-07-11T17:36:35;22.90;1.00
296;DHT22;132;48.770;9.200;2022-07-11T17:39:22;22.80;1.00
296;DHT22;132;48.770;9.200;2022-07-11T17:42:08;22.70;1.00
296;DHT22;132;48.770;9.200;2022-07-11T17:44:55;22.70;1.00
296;DHT22;132;48.770;9.200;2022-07-11T17:47:42;22.70;1.00
296;DHT22;132;48.770;9.200;2022-07-11T17:50:29;22.70;1.00
296;DHT22;132;48.770;9.200;2022-07-11T17:53:15;22.90;1.00
296;DHT22;132;48.770;9.200;2022-07-11T17:56:03;22.80;1.00
296;DHT22;132;48.770;9.200;2022-07-11T17:58:50;22.90;1.00
296;DHT22;132;48.770;9.200;2022-07-11T18:01:37;23.00;1.00
296;DHT22;132;48.770;9.200;2022-07-11T18:04:24;23.10;1.00
296;DHT22;132;48.770;9.200;2022-07-11T18:07:11;23.20;1.00
296;DHT22;132;48.770;9.200;2022-07-11T18:09:57;23.20;1.00
296;DHT22;132;48.770;9.200;2022-07-11T18:12:44;23.20;1.00
296;DHT22;132;48.770;9.200;2022-07-11T18:15:31;23.10;1.00
296;DHT22;132;48.770;9.200;2022-07-11T18:18:17;23.10;1.00
296;DHT22;132;48.770;9.200;2022-07-11T18:21:05;23.10;1.00
296;DHT22;132;48.770;9.200;2022-07-11T18:23:52;23.00;1.00
296;DHT22;132;48.770;9.200;2022-07-11T18:26:38;22.80;1.00
296;DHT22;132;48.770;9.200;2022-07-11T18:29:25;22.70;1.00
296;DHT22;132;48.770;9.200;2022-07-11T18:32:12;22.50;1.00
296;DHT22;132;48.770;9.200;2022-07-11T18:34:59;22.50;1.00
296;DHT22;132;48.770;9.200;2022-07-11T18:37:46;22.30;1.00
296;DHT22;132;48.770;9.200;2022-07-11T18:40:33;22.20;1.00
296;DHT22;132;48.770;9.200;2022-07-11T18:43:38;22.10;1.00
296;DHT22;132;48.770;9.200;2022-07-11T18:46:44;21.90;1.00
296;DHT22;132;48.770;9.200;2022-07-11T18:49:31;21.70;1.00
296;DHT22;132;48.770;9.200;2022-07-11T18:52:20;21.70;1.00
296;DHT22;132;48.770;9.200;2022-07-11T18:55:07;21.50;1.00
296;DHT22;132;48.770;9.200;2022-07-11T18:57:54;21.40;1.00
296;DHT22;132;48.770;9.200;2022-07-11T19:00:41;21.30;1.00
296;DHT22;132;48.770;9.200;2022-07-11T19:03:27;21.20;1.00
296;DHT22;132;48.770;9.200;2022-07-11T19:06:14;21.10;1.00
296;DHT22;132;48.770;9.200;2022-07-11T19:09:01;21.00;1.00
296;DHT22;132;48.770;9.200;2022-07-11T19:11:48;20.90;1.00
296;DHT22;132;48.770;9.200;2022-07-11T19:14:35;20.80;1.00
296;DHT22;132;48.770;9.200;2022-07-11T19:17:22;20.80;1.00
296;DHT22;132;48.770;9.200;2022-07-11T19:20:09;20.60;1.00
296;DHT22;132;48.770;9.200;2022-07-11T19:22:56;20.60;1.00
296;DHT22;132;48.770;9.200;2022-07-11T19:25:43;20.50;1.00